sensor_id;sensor_type;location;lat;lon;timestamp;P1;durP1;ratioP1;P2;durP2;ratioP2
43042;SDS011;28667;50.758;6.096;2023-05-07T00:01:40;1.63;;;1.02;;
43042;SDS011;28667;50.758;6.096;2023-05-07T00:04:06;1.58;;;1.48;;
43042;SDS011;28667;50.758;6.096;2023-05-07T00:06:32;4.65;;;1.35;;
43042;SDS011;28667;50.758;6.096;2023-05-07T00:08:58;1.60;;;1.20;;
43042;SDS011;28667;50.758;6.096;2023-05-07T00:11:25;2.25;;;1.38;;
43042;SDS011;28667;50.758;6.096;2023-05-07T00:13:51;2.42;;;1.08;;
43042;SDS011;28667;50.758;6.096;2023-05-07T00:16:17;1.33;;;1.23;;
43042;SDS011;28667;50.758;6.096;2023-05-07T00:18:42;2.25;;;1.40;;
43042;SDS011;28667;50.758;6.096;2023-05-07T00:21:08;1.25;;;1.15;;
43042;SDS011;28667;50.758;6.096;2023-05-07T00:23:34;1.45;;;1.35;;
43042;SDS011;28667;50.758;6.096;2023-05-07T00:26:00;3.03;;;1.13;;
43042;SDS011;28667;50.758;6.096;2023-05-07T00:28:25;2.53;;;1.17;;
43042;SDS011;28667;50.758;6.096;2023-05-07T00:30:52;1.25;;;0.82;;
43042;SDS011;28667;50.758;6.096;2023-05-07T00:33:18;4.53;;;1.25;;
43042;SDS011;28667;50.758;6.096;2023-05-07T00:35:45;1.35;;;1.10;;
43042;SDS011;28667;50.758;6.096;2023-05-07T00:38:11;1.27;;;0.90;;
43042;SDS011;28667;50.758;6.096;2023-05-07T00:40:37;2.42;;;1.20;;
43042;SDS011;28667;50.758;6.096;2023-05-07T00:43:02;1.17;;;0.93;;
43042;SDS011;28667;50.758;6.096;2023-05-07T00:45:28;1.27;;;1.08;;
43042;SDS011;28667;50.758;6.096;2023-05-07T00:47:58;2.53;;;1.23;;
43042;SDS011;28667;50.758;6.096;2023-05-07T00:50:25;1.88;;;1.02;;
43042;SDS011;28667;50.758;6.096;2023-05-07T00:52:55;2.75;;;1.10;;
43042;SDS011;28667;50.758;6.096;2023-05-07T00:55:21;1.40;;;1.30;;
43042;SDS011;28667;50.758;6.096;2023-05-07T00:57:48;1.92;;;1.25;;
43042;SDS011;28667;50.758;6.096;2023-05-07T01:00:15;1.33;;;1.23;;
43042;SDS011;28667;50.758;6.096;2023-05-07T01:02:41;2.63;;;1.20;;
43042;SDS011;28667;50.758;6.096;2023-05-07T01:05:09;1.35;;;1.23;;
43042;SDS011;28667;50.758;6.096;2023-05-07T01:07:40;1.83;;;1.20;;
43042;SDS011;28667;50.758;6.096;2023-05-07T01:10:07;2.28;;;1.00;;
43042;SDS011;28667;50.758;6.096;2023-05-07T01:12:35;1.23;;;1.13;;
43042;SDS011;28667;50.758;6.096;2023-05-07T01:15:03;1.88;;;1.33;;
43042;SDS011;28667;50.758;6.096;2023-05-07T01:17:40;0.93;;;0.93;;
43042;SDS011;28667;50.758;6.096;2023-05-07T01:20:11;1.20;;;1.10;;
43042;SDS011;28667;50.758;6.096;2023-05-07T01:22:39;1.75;;;1.08;;
43042;SDS011;28667;50.758;6.096;2023-05-07T01:25:07;1.85;;;1.20;;
43042;SDS011;28667;50.758;6.096;2023-05-07T01:27:35;1.38;;;1.25;;
43042;SDS011;28667;50.758;6.096;2023-05-07T01:30:03;3.05;;;1.35;;
43042;SDS011;28667;50.758;6.096;2023-05-07T01:32:38;1.95;;;1.45;;
43042;SDS011;28667;50.758;6.096;2023-05-07T01:35:15;1.73;;;1.30;;
43042;SDS011;28667;50.758;6.096;2023-05-07T01:37:44;1.98;;;1.55;;
43042;SDS011;28667;50.758;6.096;2023-05-07T01:40:12;3.17;;;0.98;;
43042;SDS011;28667;50.758;6.096;2023-05-07T01:42:38;1.73;;;1.13;;
43042;SDS011;28667;50.758;6.096;2023-05-07T01:45:04;1.42;;;1.33;;
43042;SDS011;28667;50.758;6.096;2023-05-07T01:47:31;3.15;;;1.40;;
43042;SDS011;28667;50.758;6.096;2023-05-07T01:49:57;1.50;;;1.40;;
43042;SDS011;28667;50.758;6.096;2023-05-07T01:52:23;3.92;;;1.80;;
43042;SDS011;28667;50.758;6.096;2023-05-07T01:54:50;1.42;;;1.33;;
43042;SDS011;28667;50.758;6.096;2023-05-07T01:57:16;1.95;;;1.38;;
43042;SDS011;28667;50.758;6.096;2023-05-07T01:59:41;5.72;;;1.58;;
43042;SDS011;28667;50.758;6.096;2023-05-07T02:02:07;1.40;;;1.25;;
43042;SDS011;28667;50.758;6.096;2023-05-07T02:04:35;1.95;;;1.25;;
43042;SDS011;28667;50.758;6.096;2023-05-07T02:07:02;1.73;;;1.63;;
43042;SDS011;28667;50.758;6.096;2023-05-07T02:09:30;2.13;;;1.40;;
43042;SDS011;28667;50.758;6.096;2023-05-07T02:11:56;1.33;;;1.05;;
43042;SDS011;28667;50.758;6.096;2023-05-07T02:14:22;1.60;;;1.23;;
43042;SDS011;28667;50.758;6.096;2023-05-07T02:16:48;2.17;;;1.38;;
43042;SDS011;28667;50.758;6.096;2023-05-07T02:19:14;4.20;;;1.13;;
43042;SDS011;28667;50.758;6.096;2023-05-07T02:21:40;1.98;;;1.27;;
43042;SDS011;28667;50.758;6.096;2023-05-07T02:24:06;2.15;;;1.50;;
43042;SDS011;28667;50.758;6.096;2023-05-07T02:26:32;2.10;;;1.05;;
43042;SDS011;28667;50.758;6.096;2023-05-07T02:28:59;1.65;;;1.13;;
43042;SDS011;28667;50.758;6.096;2023-05-07T02:31:25;0.98;;;0.85;;
43042;SDS011;28667;50.758;6.096;2023-05-07T02:33:50;3.30;;;1.08;;
43042;SDS011;28667;50.758;6.096;2023-05-07T02:36:16;1.25;;;0.85;;
43042;SDS011;28667;50.758;6.096;2023-05-07T02:38:52;5.10;;;1.05;;
43042;SDS011;28667;50.758;6.096;2023-05-07T02:41:19;1.15;;;1.00;;
43042;SDS011;28667;50.758;6.096;2023-05-07T02:43:45;2.05;;;1.10;;
43042;SDS011;28667;50.758;6.096;2023-05-07T02:46:12;1.60;;;1.00;;
43042;SDS011;28667;50.758;6.096;2023-05-07T02:48:42;4.15;;;1.15;;
43042;SDS011;28667;50.758;6.096;2023-05-07T02:51:08;0.93;;;0.93;;
43042;SDS011;28667;50.758;6.096;2023-05-07T02:53:36;0.70;;;0.70;;
43042;SDS011;28667;50.758;6.096;2023-05-07T02:56:02;1.05;;;0.93;;
43042;SDS011;28667;50.758;6.096;2023-05-07T02:58:27;0.88;;;0.80;;
43042;SDS011;28667;50.758;6.096;2023-05-07T03:00:53;1.23;;;0.90;;
43042;SDS011;28667;50.758;6.096;2023-05-07T03:03:31;1.08;;;0.98;;
43042;SDS011;28667;50.758;6.096;2023-05-07T03:05:57;2.53;;;1.20;;
43042;SDS011;28667;50.758;6.096;2023-05-07T03:08:23;3.05;;;0.65;;
43042;SDS011;28667;50.758;6.096;2023-05-07T03:10:50;1.05;;;0.90;;
43042;SDS011;28667;50.758;6.096;2023-05-07T03:13:16;1.58;;;1.48;;
43042;SDS011;28667;50.758;6.096;2023-05-07T03:15:42;0.65;;;0.65;;
43042;SDS011;28667;50.758;6.096;2023-05-07T03:18:07;1.02;;;0.90;;
43042;SDS011;28667;50.758;6.096;2023-05-07T03:20:33;2.50;;;1.10;;
43042;SDS011;28667;50.758;6.096;2023-05-07T03:22:59;1.98;;;1.23;;
43042;SDS011;28667;50.758;6.096;2023-05-07T03:25:25;1.15;;;0.93;;
43042;SDS011;28667;50.758;6.096;2023-05-07T03:27:51;1.35;;;1.08;;
43042;SDS011;28667;50.758;6.096;2023-05-07T03:30:21;1.17;;;0.95;;
43042;SDS011;28667;50.758;6.096;2023-05-07T03:32:46;0.80;;;0.80;;
43042;SDS011;28667;50.758;6.096;2023-05-07T03:35:12;1.17;;;1.00;;
43042;SDS011;28667;50.758;6.096;2023-05-07T03:37:39;2.53;;;1.00;;
43042;SDS011;28667;50.758;6.096;2023-05-07T03:40:06;2.00;;;0.70;;
43042;SDS011;28667;50.758;6.096;2023-05-07T03:42:41;6.70;;;1.08;;
43042;SDS011;28667;50.758;6.096;2023-05-07T03:45:07;0.80;;;0.80;;
43042;SDS011;28667;50.758;6.096;2023-05-07T03:47:33;1.55;;;0.80;;
43042;SDS011;28667;50.758;6.096;2023-05-07T03:49:59;1.13;;;0.80;;
43042;SDS011;28667;50.758;6.096;2023-05-07T03:52:25;2.08;;;1.10;;
43042;SDS011;28667;50.758;6.096;2023-05-07T03:54:53;1.13;;;1.02;;
43042;SDS011;28667;50.758;6.096;2023-05-07T03:57:19;3.70;;;1.15;;
43042;SDS011;28667;50.758;6.096;2023-05-07T03:59:46;1.95;;;0.93;;
43042;SDS011;28667;50.758;6.096;2023-05-07T04:02:12;0.70;;;0.65;;
43042;SDS011;28667;50.758;6.096;2023-05-07T04:04:39;1.10;;;0.70;;
43042;SDS011;28667;50.758;6.096;2023-05-07T04:07:05;1.25;;;1.00;;
43042;SDS011;28667;50.758;6.096;2023-05-07T04:09:36;1.85;;;0.70;;
43042;SDS011;28667;50.758;6.096;2023-05-07T04:12:02;1.00;;;0.90;;
43042;SDS011;28667;50.758;6.096;2023-05-07T04:14:29;1.85;;;1.10;;
43042;SDS011;28667;50.758;6.096;2023-05-07T04:16:58;1.10;;;0.90;;
43042;SDS011;28667;50.758;6.096;2023-05-07T04:19:25;1.25;;;0.93;;
43042;SDS011;28667;50.758;6.096;2023-05-07T04:21:52;1.90;;;1.02;;
43042;SDS011;28667;50.758;6.096;2023-05-07T04:24:18;1.00;;;0.80;;
43042;SDS011;28667;50.758;6.096;2023-05-07T04:26:45;0.80;;;0.80;;
43042;SDS011;28667;50.758;6.096;2023-05-07T04:29:11;0.88;;;0.82;;
43042;SDS011;28667;50.758;6.096;2023-05-07T04:31:37;1.10;;;1.00;;
43042;SDS011;28667;50.758;6.096;2023-05-07T04:34:03;1.60;;;0.98;;
43042;SDS011;28667;50.758;6.096;2023-05-07T04:36:28;1.52;;;0.93;;
43042;SDS011;28667;50.758;6.096;2023-05-07T04:39:02;1.15;;;1.02;;
43042;SDS011;28667;50.758;6.096;2023-05-07T04:41:28;1.17;;;1.08;;
43042;SDS011;28667;50.758;6.096;2023-05-07T04:43:54;0.88;;;0.70;;
43042;SDS011;28667;50.758;6.096;2023-05-07T04:46:22;0.93;;;0.80;;
43042;SDS011;28667;50.758;6.096;2023-05-07T04:48:49;1.42;;;0.88;;
43042;SDS011;28667;50.758;6.096;2023-05-07T04:51:15;0.77;;;0.70;;
43042;SDS011;28667;50.758;6.096;2023-05-07T04:53:41;2.47;;;0.75;;
43042;SDS011;28667;50.758;6.096;2023-05-07T04:56:08;1.13;;;1.02;;
43042;SDS011;28667;50.758;6.096;2023-05-07T04:58:39;1.95;;;1.00;;
43042;SDS011;28667;50.758;6.096;2023-05-07T05:01:05;1.40;;;1.00;;
43042;SDS011;28667;50.758;6.096;2023-05-07T05:03:31;1.30;;;1.10;;
43042;SDS011;28667;50.758;6.096;2023-05-07T05:05:57;2.28;;;1.77;;
43042;SDS011;28667;50.758;6.096;2023-05-07T05:08:27;5.43;;;2.63;;
43042;SDS011;28667;50.758;6.096;2023-05-07T05:10:55;3.38;;;1.80;;
43042;SDS011;28667;50.758;6.096;2023-05-07T05:13:21;2.03;;;1.50;;
43042;SDS011;28667;50.758;6.096;2023-05-07T05:15:47;2.55;;;1.70;;
43042;SDS011;28667;50.758;6.096;2023-05-07T05:18:13;5.13;;;2.55;;
43042;SDS011;28667;50.758;6.096;2023-05-07T05:20:39;3.05;;;1.98;;
43042;SDS011;28667;50.758;6.096;2023-05-07T05:23:05;2.67;;;1.60;;
43042;SDS011;28667;50.758;6.096;2023-05-07T05:25:33;2.83;;;1.60;;
43042;SDS011;28667;50.758;6.096;2023-05-07T05:27:59;2.22;;;1.42;;
43042;SDS011;28667;50.758;6.096;2023-05-07T05:30:26;2.30;;;1.70;;
43042;SDS011;28667;50.758;6.096;2023-05-07T05:32:52;2.00;;;1.02;;
43042;SDS011;28667;50.758;6.096;2023-05-07T05:35:18;1.70;;;1.20;;
43042;SDS011;28667;50.758;6.096;2023-05-07T05:37:44;1.35;;;1.02;;
43042;SDS011;28667;50.758;6.096;2023-05-07T05:40:10;2.00;;;1.20;;
43042;SDS011;28667;50.758;6.096;2023-05-07T05:42:36;4.63;;;1.00;;
43042;SDS011;28667;50.758;6.096;2023-05-07T05:45:02;1.20;;;1.00;;
43042;SDS011;28667;50.758;6.096;2023-05-07T05:47:30;2.60;;;1.20;;
43042;SDS011;28667;50.758;6.096;2023-05-07T05:49:56;2.65;;;1.05;;
43042;SDS011;28667;50.758;6.096;2023-05-07T05:52:22;0.80;;;0.77;;
43042;SDS011;28667;50.758;6.096;2023-05-07T05:54:53;1.08;;;1.00;;
43042;SDS011;28667;50.758;6.096;2023-05-07T05:57:19;0.93;;;0.85;;
43042;SDS011;28667;50.758;6.096;2023-05-07T05:59:44;2.65;;;1.23;;
43042;SDS011;28667;50.758;6.096;2023-05-07T06:02:12;1.60;;;0.80;;
43042;SDS011;28667;50.758;6.096;2023-05-07T06:04:38;1.38;;;0.80;;
43042;SDS011;28667;50.758;6.096;2023-05-07T06:07:04;1.00;;;0.90;;
43042;SDS011;28667;50.758;6.096;2023-05-07T06:09:30;1.45;;;1.00;;
43042;SDS011;28667;50.758;6.096;2023-05-07T06:11:55;1.17;;;0.82;;
43042;SDS011;28667;50.758;6.096;2023-05-07T06:14:21;1.08;;;0.88;;
43042;SDS011;28667;50.758;6.096;2023-05-07T06:16:47;0.80;;;0.80;;
43042;SDS011;28667;50.758;6.096;2023-05-07T06:19:13;1.30;;;1.00;;
43042;SDS011;28667;50.758;6.096;2023-05-07T06:21:40;0.90;;;0.70;;
43042;SDS011;28667;50.758;6.096;2023-05-07T06:24:06;1.00;;;0.90;;
43042;SDS011;28667;50.758;6.096;2023-05-07T06:26:32;1.08;;;0.55;;
43042;SDS011;28667;50.758;6.096;2023-05-07T06:28:58;0.50;;;0.50;;
43042;SDS011;28667;50.758;6.096;2023-05-07T06:31:28;0.77;;;0.57;;
43042;SDS011;28667;50.758;6.096;2023-05-07T06:34:00;1.42;;;1.10;;
43042;SDS011;28667;50.758;6.096;2023-05-07T06:36:32;1.10;;;0.93;;
43042;SDS011;28667;50.758;6.096;2023-05-07T06:39:01;1.48;;;0.95;;
43042;SDS011;28667;50.758;6.096;2023-05-07T06:41:27;0.73;;;0.73;;
43042;SDS011;28667;50.758;6.096;2023-05-07T06:43:54;2.88;;;1.25;;
43042;SDS011;28667;50.758;6.096;2023-05-07T06:46:34;1.20;;;1.00;;
43042;SDS011;28667;50.758;6.096;2023-05-07T06:49:03;1.02;;;1.02;;
43042;SDS011;28667;50.758;6.096;2023-05-07T06:51:28;0.95;;;0.93;;
43042;SDS011;28667;50.758;6.096;2023-05-07T06:53:56;1.05;;;0.95;;
43042;SDS011;28667;50.758;6.096;2023-05-07T06:56:22;0.60;;;0.60;;
43042;SDS011;28667;50.758;6.096;2023-05-07T06:58:48;1.00;;;0.65;;
43042;SDS011;28667;50.758;6.096;2023-05-07T07:01:15;0.70;;;0.70;;
43042;SDS011;28667;50.758;6.096;2023-05-07T07:03:43;2.38;;;1.00;;
43042;SDS011;28667;50.758;6.096;2023-05-07T07:06:08;1.17;;;0.98;;
43042;SDS011;28667;50.758;6.096;2023-05-07T07:08:34;1.23;;;1.13;;
43042;SDS011;28667;50.758;6.096;2023-05-07T07:11:00;1.38;;;0.88;;
43042;SDS011;28667;50.758;6.096;2023-05-07T07:13:26;1.38;;;0.90;;
43042;SDS011;28667;50.758;6.096;2023-05-07T07:15:52;1.10;;;0.73;;
43042;SDS011;28667;50.758;6.096;2023-05-07T07:18:19;1.55;;;0.80;;
43042;SDS011;28667;50.758;6.096;2023-05-07T07:20:46;1.13;;;1.13;;
43042;SDS011;28667;50.758;6.096;2023-05-07T07:23:12;1.90;;;1.30;;
43042;SDS011;28667;50.758;6.096;2023-05-07T07:25:40;2.30;;;1.27;;
43042;SDS011;28667;50.758;6.096;2023-05-07T07:28:06;2.45;;;0.98;;
43042;SDS011;28667;50.758;6.096;2023-05-07T07:30:32;1.30;;;1.20;;
43042;SDS011;28667;50.758;6.096;2023-05-07T07:32:57;1.30;;;1.10;;
43042;SDS011;28667;50.758;6.096;2023-05-07T07:35:30;0.93;;;0.90;;
43042;SDS011;28667;50.758;6.096;2023-05-07T07:37:56;3.13;;;1.45;;
43042;SDS011;28667;50.758;6.096;2023-05-07T07:40:22;1.55;;;1.02;;
43042;SDS011;28667;50.758;6.096;2023-05-07T07:42:48;0.80;;;0.77;;
43042;SDS011;28667;50.758;6.096;2023-05-07T07:45:14;4.55;;;1.00;;
43042;SDS011;28667;50.758;6.096;2023-05-07T07:47:44;1.83;;;1.08;;
43042;SDS011;28667;50.758;6.096;2023-05-07T07:50:10;4.20;;;1.17;;
43042;SDS011;28667;50.758;6.096;2023-05-07T07:52:36;1.55;;;1.10;;
43042;SDS011;28667;50.758;6.096;2023-05-07T07:55:03;1.20;;;1.10;;
43042;SDS011;28667;50.758;6.096;2023-05-07T07:57:30;1.73;;;1.15;;
43042;SDS011;28667;50.758;6.096;2023-05-07T07:59:56;0.93;;;0.70;;
43042;SDS011;28667;50.758;6.096;2023-05-07T08:02:22;2.92;;;0.85;;
43042;SDS011;28667;50.758;6.096;2023-05-07T08:04:49;1.27;;;0.80;;
43042;SDS011;28667;50.758;6.096;2023-05-07T08:07:14;2.67;;;1.42;;
43042;SDS011;28667;50.758;6.096;2023-05-07T08:09:44;0.70;;;0.70;;
43042;SDS011;28667;50.758;6.096;2023-05-07T08:12:10;1.05;;;0.70;;
43042;SDS011;28667;50.758;6.096;2023-05-07T08:14:37;1.20;;;0.85;;
43042;SDS011;28667;50.758;6.096;2023-05-07T08:17:04;0.90;;;0.80;;
43042;SDS011;28667;50.758;6.096;2023-05-07T08:19:31;0.80;;;0.60;;
43042;SDS011;28667;50.758;6.096;2023-05-07T08:21:57;1.77;;;0.60;;
43042;SDS011;28667;50.758;6.096;2023-05-07T08:24:24;1.77;;;0.50;;
43042;SDS011;28667;50.758;6.096;2023-05-07T08:26:50;1.20;;;0.82;;
43042;SDS011;28667;50.758;6.096;2023-05-07T08:29:16;1.02;;;0.73;;
43042;SDS011;28667;50.758;6.096;2023-05-07T08:31:43;0.70;;;0.60;;
43042;SDS011;28667;50.758;6.096;2023-05-07T08:34:08;0.60;;;0.60;;
43042;SDS011;28667;50.758;6.096;2023-05-07T08:36:37;1.30;;;0.63;;
43042;SDS011;28667;50.758;6.096;2023-05-07T08:39:03;2.80;;;0.63;;
43042;SDS011;28667;50.758;6.096;2023-05-07T08:41:29;0.73;;;0.50;;
43042;SDS011;28667;50.758;6.096;2023-05-07T08:43:56;1.25;;;0.65;;
43042;SDS011;28667;50.758;6.096;2023-05-07T08:46:25;4.28;;;0.88;;
43042;SDS011;28667;50.758;6.096;2023-05-07T08:48:57;2.00;;;0.70;;
43042;SDS011;28667;50.758;6.096;2023-05-07T08:51:24;2.45;;;0.80;;
43042;SDS011;28667;50.758;6.096;2023-05-07T08:53:50;2.38;;;0.85;;
43042;SDS011;28667;50.758;6.096;2023-05-07T08:56:30;0.82;;;0.65;;
43042;SDS011;28667;50.758;6.096;2023-05-07T08:58:56;1.75;;;0.70;;
43042;SDS011;28667;50.758;6.096;2023-05-07T09:01:24;1.10;;;0.57;;
43042;SDS011;28667;50.758;6.096;2023-05-07T09:03:51;2.63;;;0.50;;
43042;SDS011;28667;50.758;6.096;2023-05-07T09:06:18;1.80;;;0.60;;
43042;SDS011;28667;50.758;6.096;2023-05-07T09:08:52;1.27;;;0.70;;
43042;SDS011;28667;50.758;6.096;2023-05-07T09:13:46;1.17;;;0.73;;
43042;SDS011;28667;50.758;6.096;2023-05-07T09:16:12;1.63;;;0.70;;
43042;SDS011;28667;50.758;6.096;2023-05-07T09:18:44;0.75;;;0.75;;
43042;SDS011;28667;50.758;6.096;2023-05-07T09:21:15;0.85;;;0.70;;
43042;SDS011;28667;50.758;6.096;2023-05-07T09:23:43;1.50;;;0.50;;
43042;SDS011;28667;50.758;6.096;2023-05-07T09:26:09;1.52;;;0.70;;
43042;SDS011;28667;50.758;6.096;2023-05-07T09:28:39;0.80;;;0.80;;
43042;SDS011;28667;50.758;6.096;2023-05-07T09:31:06;1.10;;;0.77;;
43042;SDS011;28667;50.758;6.096;2023-05-07T09:33:32;0.98;;;0.70;;
43042;SDS011;28667;50.758;6.096;2023-05-07T09:36:02;0.57;;;0.55;;
43042;SDS011;28667;50.758;6.096;2023-05-07T09:38:32;0.70;;;0.60;;
43042;SDS011;28667;50.758;6.096;2023-05-07T09:41:06;1.45;;;0.85;;
43042;SDS011;28667;50.758;6.096;2023-05-07T09:43:39;0.88;;;0.63;;
43042;SDS011;28667;50.758;6.096;2023-05-07T09:46:16;1.27;;;0.73;;
43042;SDS011;28667;50.758;6.096;2023-05-07T09:48:50;1.35;;;0.70;;
43042;SDS011;28667;50.758;6.096;2023-05-07T09:51:30;2.42;;;0.85;;
43042;SDS011;28667;50.758;6.096;2023-05-07T09:54:06;3.38;;;0.90;;
43042;SDS011;28667;50.758;6.096;2023-05-07T09:56:35;1.27;;;0.88;;
43042;SDS011;28667;50.758;6.096;2023-05-07T09:59:03;2.17;;;0.88;;
43042;SDS011;28667;50.758;6.096;2023-05-07T10:01:32;0.50;;;0.50;;
43042;SDS011;28667;50.758;6.096;2023-05-07T10:04:01;1.92;;;0.77;;
43042;SDS011;28667;50.758;6.096;2023-05-07T10:06:28;0.70;;;0.70;;
43042;SDS011;28667;50.758;6.096;2023-05-07T10:08:56;1.17;;;0.70;;
43042;SDS011;28667;50.758;6.096;2023-05-07T10:11:22;1.75;;;0.88;;
43042;SDS011;28667;50.758;6.096;2023-05-07T10:13:48;1.75;;;1.10;;
43042;SDS011;28667;50.758;6.096;2023-05-07T10:16:17;2.55;;;1.30;;
43042;SDS011;28667;50.758;6.096;2023-05-07T10:18:46;1.70;;;1.20;;
43042;SDS011;28667;50.758;6.096;2023-05-07T10:21:18;1.85;;;0.90;;
43042;SDS011;28667;50.758;6.096;2023-05-07T10:23:49;1.10;;;1.00;;
43042;SDS011;28667;50.758;6.096;2023-05-07T10:26:36;1.20;;;1.10;;
43042;SDS011;28667;50.758;6.096;2023-05-07T10:29:07;0.95;;;0.75;;
43042;SDS011;28667;50.758;6.096;2023-05-07T10:31:48;1.48;;;0.80;;
43042;SDS011;28667;50.758;6.096;2023-05-07T10:34:18;0.75;;;0.75;;
43042;SDS011;28667;50.758;6.096;2023-05-07T10:36:49;0.82;;;0.82;;
43042;SDS011;28667;50.758;6.096;2023-05-07T10:39:15;3.17;;;0.90;;
43042;SDS011;28667;50.758;6.096;2023-05-07T10:41:41;0.88;;;0.80;;
43042;SDS011;28667;50.758;6.096;2023-05-07T10:44:09;1.73;;;0.60;;
43042;SDS011;28667;50.758;6.096;2023-05-07T10:46:36;0.77;;;0.60;;
43042;SDS011;28667;50.758;6.096;2023-05-07T10:49:08;2.13;;;1.35;;
43042;SDS011;28667;50.758;6.096;2023-05-07T10:52:10;3.53;;;0.82;;
43042;SDS011;28667;50.758;6.096;2023-05-07T10:54:39;1.38;;;0.63;;
43042;SDS011;28667;50.758;6.096;2023-05-07T10:59:58;1.45;;;0.75;;
43042;SDS011;28667;50.758;6.096;2023-05-07T11:03:29;2.28;;;0.65;;
43042;SDS011;28667;50.758;6.096;2023-05-07T11:05:24;0.73;;;0.70;;
43042;SDS011;28667;50.758;6.096;2023-05-07T11:08:03;0.95;;;0.60;;
43042;SDS011;28667;50.758;6.096;2023-05-07T11:10:55;1.27;;;0.80;;
43042;SDS011;28667;50.758;6.096;2023-05-07T11:13:44;1.27;;;0.82;;
43042;SDS011;28667;50.758;6.096;2023-05-07T11:16:23;1.55;;;1.02;;
43042;SDS011;28667;50.758;6.096;2023-05-07T11:18:58;0.65;;;0.65;;
43042;SDS011;28667;50.758;6.096;2023-05-07T11:21:40;1.25;;;0.75;;
43042;SDS011;28667;50.758;6.096;2023-05-07T11:24:22;2.60;;;0.85;;
43042;SDS011;28667;50.758;6.096;2023-05-07T11:26:53;1.08;;;0.70;;
43042;SDS011;28667;50.758;6.096;2023-05-07T11:29:22;1.10;;;0.63;;
43042;SDS011;28667;50.758;6.096;2023-05-07T11:31:51;1.00;;;0.90;;
43042;SDS011;28667;50.758;6.096;2023-05-07T11:34:20;0.75;;;0.57;;
43042;SDS011;28667;50.758;6.096;2023-05-07T11:36:52;2.58;;;0.95;;
43042;SDS011;28667;50.758;6.096;2023-05-07T11:39:28;1.55;;;0.73;;
43042;SDS011;28667;50.758;6.096;2023-05-07T11:41:56;1.45;;;0.90;;
43042;SDS011;28667;50.758;6.096;2023-05-07T11:44:23;0.77;;;0.75;;
43042;SDS011;28667;50.758;6.096;2023-05-07T11:46:49;1.60;;;0.93;;
43042;SDS011;28667;50.758;6.096;2023-05-07T11:49:15;0.82;;;0.82;;
43042;SDS011;28667;50.758;6.096;2023-05-07T11:51:41;1.85;;;0.80;;
43042;SDS011;28667;50.758;6.096;2023-05-07T11:54:07;0.43;;;0.43;;
43042;SDS011;28667;50.758;6.096;2023-05-07T11:56:36;1.55;;;1.00;;
43042;SDS011;28667;50.758;6.096;2023-05-07T11:59:02;2.13;;;1.10;;
43042;SDS011;28667;50.758;6.096;2023-05-07T12:01:28;3.53;;;0.93;;
43042;SDS011;28667;50.758;6.096;2023-05-07T12:03:54;1.10;;;1.00;;
43042;SDS011;28667;50.758;6.096;2023-05-07T12:06:19;2.92;;;1.13;;
43042;SDS011;28667;50.758;6.096;2023-05-07T12:08:46;1.27;;;1.08;;
43042;SDS011;28667;50.758;6.096;2023-05-07T12:11:15;1.33;;;1.15;;
43042;SDS011;28667;50.758;6.096;2023-05-07T12:13:47;2.35;;;1.40;;
43042;SDS011;28667;50.758;6.096;2023-05-07T12:16:13;3.50;;;1.98;;
43042;SDS011;28667;50.758;6.096;2023-05-07T12:18:42;2.40;;;2.20;;
43042;SDS011;28667;50.758;6.096;2023-05-07T12:21:10;5.13;;;2.33;;
43042;SDS011;28667;50.758;6.096;2023-05-07T12:23:37;1.98;;;1.48;;
43042;SDS011;28667;50.758;6.096;2023-05-07T12:26:03;3.97;;;2.15;;
43042;SDS011;28667;50.758;6.096;2023-05-07T12:28:36;5.57;;;2.95;;
43042;SDS011;28667;50.758;6.096;2023-05-07T12:31:04;3.08;;;2.75;;
43042;SDS011;28667;50.758;6.096;2023-05-07T12:33:31;3.47;;;2.45;;
43042;SDS011;28667;50.758;6.096;2023-05-07T12:35:57;6.68;;;3.25;;
43042;SDS011;28667;50.758;6.096;2023-05-07T12:38:23;4.88;;;2.92;;
43042;SDS011;28667;50.758;6.096;2023-05-07T12:40:55;6.22;;;3.90;;
43042;SDS011;28667;50.758;6.096;2023-05-07T12:43:23;5.82;;;3.22;;
43042;SDS011;28667;50.758;6.096;2023-05-07T12:45:51;6.45;;;3.80;;
43042;SDS011;28667;50.758;6.096;2023-05-07T12:48:19;5.50;;;3.38;;
43042;SDS011;28667;50.758;6.096;2023-05-07T12:50:48;4.18;;;3.00;;
43042;SDS011;28667;50.758;6.096;2023-05-07T12:53:19;5.20;;;3.20;;
43042;SDS011;28667;50.758;6.096;2023-05-07T12:55:47;4.22;;;3.13;;
43042;SDS011;28667;50.758;6.096;2023-05-07T12:58:15;5.60;;;3.38;;
43042;SDS011;28667;50.758;6.096;2023-05-07T13:00:41;4.38;;;2.60;;
43042;SDS011;28667;50.758;6.096;2023-05-07T13:03:08;3.10;;;2.75;;
43042;SDS011;28667;50.758;6.096;2023-05-07T13:05:34;6.63;;;3.60;;
43042;SDS011;28667;50.758;6.096;2023-05-07T13:08:00;5.88;;;3.05;;
43042;SDS011;28667;50.758;6.096;2023-05-07T13:10:26;4.38;;;2.70;;
43042;SDS011;28667;50.758;6.096;2023-05-07T13:12:52;4.97;;;3.08;;
43042;SDS011;28667;50.758;6.096;2023-05-07T13:15:18;4.78;;;3.50;;
43042;SDS011;28667;50.758;6.096;2023-05-07T13:17:44;6.63;;;4.03;;
43042;SDS011;28667;50.758;6.096;2023-05-07T13:20:10;4.03;;;2.17;;
43042;SDS011;28667;50.758;6.096;2023-05-07T13:22:37;6.15;;;3.53;;
43042;SDS011;28667;50.758;6.096;2023-05-07T13:25:04;4.57;;;2.83;;
43042;SDS011;28667;50.758;6.096;2023-05-07T13:27:30;4.45;;;2.90;;
43042;SDS011;28667;50.758;6.096;2023-05-07T13:29:56;4.28;;;3.33;;
43042;SDS011;28667;50.758;6.096;2023-05-07T13:32:22;6.13;;;2.72;;
43042;SDS011;28667;50.758;6.096;2023-05-07T13:34:48;6.10;;;3.70;;
43042;SDS011;28667;50.758;6.096;2023-05-07T13:37:14;3.17;;;2.42;;
43042;SDS011;28667;50.758;6.096;2023-05-07T13:39:39;3.08;;;2.42;;
43042;SDS011;28667;50.758;6.096;2023-05-07T13:42:06;4.18;;;2.42;;
43042;SDS011;28667;50.758;6.096;2023-05-07T13:44:32;7.90;;;3.75;;
43042;SDS011;28667;50.758;6.096;2023-05-07T13:46:58;2.40;;;2.10;;
43042;SDS011;28667;50.758;6.096;2023-05-07T13:49:24;3.30;;;2.20;;
43042;SDS011;28667;50.758;6.096;2023-05-07T13:51:49;3.33;;;2.95;;
43042;SDS011;28667;50.758;6.096;2023-05-07T13:54:15;4.18;;;2.90;;
43042;SDS011;28667;50.758;6.096;2023-05-07T13:56:41;2.78;;;1.75;;
43042;SDS011;28667;50.758;6.096;2023-05-07T13:59:07;2.90;;;2.60;;
43042;SDS011;28667;50.758;6.096;2023-05-07T14:01:33;3.22;;;2.35;;
43042;SDS011;28667;50.758;6.096;2023-05-07T14:03:59;2.58;;;2.10;;
43042;SDS011;28667;50.758;6.096;2023-05-07T14:06:24;4.65;;;1.52;;
43042;SDS011;28667;50.758;6.096;2023-05-07T14:08:50;4.70;;;2.92;;
43042;SDS011;28667;50.758;6.096;2023-05-07T14:11:16;3.17;;;2.25;;
43042;SDS011;28667;50.758;6.096;2023-05-07T14:13:42;3.47;;;2.70;;
43042;SDS011;28667;50.758;6.096;2023-05-07T14:16:08;3.97;;;2.15;;
43042;SDS011;28667;50.758;6.096;2023-05-07T14:18:34;3.00;;;2.72;;
43042;SDS011;28667;50.758;6.096;2023-05-07T14:21:02;3.25;;;2.47;;
43042;SDS011;28667;50.758;6.096;2023-05-07T14:23:28;4.50;;;3.13;;
43042;SDS011;28667;50.758;6.096;2023-05-07T14:25:54;6.72;;;3.08;;
43042;SDS011;28667;50.758;6.096;2023-05-07T14:28:22;2.78;;;2.33;;
43042;SDS011;28667;50.758;6.096;2023-05-07T14:30:48;3.20;;;1.70;;
43042;SDS011;28667;50.758;6.096;2023-05-07T14:33:14;2.45;;;2.25;;
43042;SDS011;28667;50.758;6.096;2023-05-07T14:35:40;2.42;;;2.05;;
43042;SDS011;28667;50.758;6.096;2023-05-07T14:38:05;2.28;;;1.60;;
43042;SDS011;28667;50.758;6.096;2023-05-07T14:40:31;2.30;;;1.60;;
43042;SDS011;28667;50.758;6.096;2023-05-07T14:42:57;1.90;;;1.10;;
43042;SDS011;28667;50.758;6.096;2023-05-07T14:45:23;1.50;;;1.40;;
43042;SDS011;28667;50.758;6.096;2023-05-07T14:47:48;1.98;;;1.60;;
43042;SDS011;28667;50.758;6.096;2023-05-07T14:50:14;2.63;;;1.73;;
43042;SDS011;28667;50.758;6.096;2023-05-07T14:52:40;1.83;;;1.40;;
43042;SDS011;28667;50.758;6.096;2023-05-07T14:55:05;1.50;;;1.30;;
43042;SDS011;28667;50.758;6.096;2023-05-07T14:57:31;3.67;;;1.80;;